Wetterdaten: Woche 27.09.21 - 03.10.21 (KW39)
Datum Zeit Temp. Aussen Temp. o. S. Temp +5cm Feuchte Auss Luftdruck Regen Sonnenschein Regendauer Solar Windben Empfang
27.09.2021 00:00 16,7 C 15,4 C 14,7 C 92 % 1016,1 hPa 0,0 l/m 0,00 h 0,00 h 0 W/m 3,5 km/h (1 Bft) 98,28 %
27.09.2021 01:00 15,8 C 14,8 C 14,1 C 92 % 1015,9 hPa 0,0 l/m 0,00 h 0,00 h 0 W/m 3,9 km/h (1 Bft) 96,80 %
27.09.2021 02:00 15,4 C 14,4 C 13,9 C 93 % 1016,0 hPa 0,0 l/m 0,00 h 0,00 h 0 W/m 4,2 km/h (1 Bft) 97,44 %
27.09.2021 03:00 15,0 C 14,1 C 13,6 C 94 % 1015,7 hPa 0,0 l/m 0,00 h 0,00 h 0 W/m 5,2 km/h (1 Bft) 98,86 %
27.09.2021 04:00 14,5 C 13,9 C 13,4 C 94 % 1015,5 hPa 0,0 l/m 0,00 h 0,00 h 0 W/m 4,5 km/h (1 Bft) 95,82 %
27.09.2021 05:00 14,4 C 13,6 C 13,4 C 95 % 1015,1 hPa 0,0 l/m 0,00 h 0,00 h 0 W/m 4,3 km/h (1 Bft) 98,29 %
27.09.2021 06:00 14,3 C 13,6 C 13,5 C 96 % 1015,2 hPa 0,0 l/m 0,00 h 0,00 h 0 W/m 6,3 km/h (2 Bft) 99,22 %
27.09.2021 07:00 15,0 C 14,4 C 14,1 C 96 % 1015,0 hPa 0,0 l/m 0,00 h 0,00 h 9 W/m 9,2 km/h (2 Bft) 94,94 %
27.09.2021 08:00 15,3 C 15,0 C 14,6 C 96 % 1014,9 hPa 0,0 l/m 0,00 h 0,00 h 45 W/m 8,6 km/h (2 Bft) 99,58 %
27.09.2021 09:00 16,3 C 16,5 C 15,7 C 95 % 1014,6 hPa 0,0 l/m 0,33 h 0,00 h 142 W/m 11,9 km/h (2 Bft) 97,08 %
27.09.2021 10:00 18,0 C 18,2 C 17,1 C 90 % 1014,4 hPa 0,0 l/m 0,13 h 0,00 h 181 W/m 13,4 km/h (3 Bft) 96,57 %
27.09.2021 11:00 19,5 C 19,4 C 18,2 C 84 % 1014,2 hPa 0,0 l/m 0,13 h 0,00 h 196 W/m 14,0 km/h (3 Bft) 98,71 %
27.09.2021 12:00 20,2 C 20,0 C 18,4 C 81 % 1014,2 hPa 0,0 l/m 0,00 h 0,00 h 191 W/m 13,8 km/h (3 Bft) 97,72 %
27.09.2021 13:00 21,0 C 21,2 C 19,2 C 77 % 1013,9 hPa 0,0 l/m 0,40 h 0,00 h 274 W/m 19,3 km/h (3 Bft) 96,80 %
27.09.2021 14:00 21,5 C 21,3 C 19,5 C 73 % 1013,6 hPa 0,0 l/m 0,13 h 0,00 h 242 W/m 22,9 km/h (4 Bft) 98,43 %
27.09.2021 15:00 21,4 C 20,9 C 18,6 C 74 % 1013,7 hPa 0,0 l/m 0,00 h 0,10 h 158 W/m 17,4 km/h (3 Bft) 97,95 %
27.09.2021 16:00 20,1 C 19,2 C 16,9 C 79 % 1014,4 hPa 0,0 l/m 0,00 h 0,17 h 86 W/m 26,9 km/h (4 Bft) 97,58 %
27.09.2021 17:00 18,2 C 16,9 C 15,1 C 88 % 1014,5 hPa 1,6 l/m 0,00 h 0,67 h 26 W/m 10,8 km/h (2 Bft) 97,22 %
27.09.2021 18:00 15,0 C 13,7 C 12,7 C 93 % 1015,7 hPa 5,4 l/m 0,00 h 0,73 h 13 W/m 14,9 km/h (3 Bft) 97,62 %
27.09.2021 19:00 14,5 C 13,8 C 12,5 C 94 % 1017,0 hPa 0,2 l/m 0,00 h 0,40 h 6 W/m 6,0 km/h (2 Bft) 96,94 %
27.09.2021 20:00 14,5 C 13,5 C 12,8 C 95 % 1017,8 hPa 0,0 l/m 0,00 h 0,17 h 0 W/m 3,6 km/h (1 Bft) 98,15 %
27.09.2021 21:00 14,1 C 13,1 C 12,4 C 96 % 1019,0 hPa 0,0 l/m 0,00 h 0,00 h 0 W/m 4,7 km/h (1 Bft) 97,02 %
27.09.2021 22:00 13,4 C 12,3 C 11,8 C 96 % 1020,1 hPa 0,0 l/m 0,00 h 0,00 h 0 W/m 2,1 km/h (1 Bft) 98,54 %
27.09.2021 23:00 12,7 C 11,6 C 11,3 C 96 % 1020,9 hPa 0,0 l/m 0,00 h 0,00 h 0 W/m 1,5 km/h (1 Bft) 97,54 %
28.09.2021 00:00 12,0 C 11,1 C 11,1 C 96 % 1021,4 hPa 0,2 l/m 0,00 h 0,00 h 0 W/m 3,4 km/h (1 Bft) 96,16 %
28.09.2021 01:00 11,8 C 11,1 C 11,1 C 96 % 1021,8 hPa 0,0 l/m 0,00 h 0,00 h 0 W/m 6,4 km/h (2 Bft) 98,56 %
28.09.2021 02:00 11,6 C 10,7 C 10,6 C 96 % 1022,2 hPa 0,0 l/m 0,00 h 0,00 h 0 W/m 3,2 km/h (1 Bft) 96,24 %
28.09.2021 03:00 11,2 C 10,3 C 10,5 C 96 % 1022,5 hPa 0,0 l/m 0,00 h 0,00 h 0 W/m 1,0 km/h (0 Bft) 95,37 %
28.09.2021 04:00 10,6 C 9,7 C 10,0 C 96 % 1022,7 hPa 0,0 l/m 0,00 h 0,00 h 0 W/m 1,4 km/h (1 Bft) 97,49 %
28.09.2021 05:00 10,5 C 9,7 C 10,0 C 96 % 1022,9 hPa 0,0 l/m 0,00 h 0,00 h 0 W/m 1,5 km/h (1 Bft) 98,15 %
28.09.2021 06:00 10,2 C 9,4 C 10,0 C 96 % 1023,2 hPa 0,0 l/m 0,00 h 0,00 h 0 W/m 2,0 km/h (1 Bft) 96,30 %
28.09.2021 07:00 9,9 C 9,3 C 9,9 C 96 % 1023,6 hPa 0,0 l/m 0,00 h 0,00 h 8 W/m 2,6 km/h (1 Bft) 97,98 %
28.09.2021 08:00 10,0 C 9,6 C 10,2 C 96 % 1023,8 hPa 0,0 l/m 0,00 h 0,00 h 26 W/m 2,6 km/h (1 Bft) 98,24 %
28.09.2021 09:00 11,1 C 11,4 C 11,4 C 97 % 1023,9 hPa 0,0 l/m 0,17 h 0,00 h 87 W/m 6,5 km/h (2 Bft) 97,22 %
28.09.2021 10:00 13,1 C 13,6 C 13,2 C 94 % 1024,0 hPa 0,0 l/m 0,07 h 0,00 h 114 W/m 9,6 km/h (2 Bft) 96,59 %
28.09.2021 11:00 15,1 C 16,5 C 16,1 C 85 % 1023,9 hPa 0,0 l/m 0,63 h 0,00 h 269 W/m 10,3 km/h (2 Bft) 99,71 %
28.09.2021 12:00 16,7 C 17,9 C 16,8 C 80 % 1023,5 hPa 0,0 l/m 0,67 h 0,00 h 307 W/m 10,2 km/h (2 Bft) 95,87 %
28.09.2021 13:00 17,5 C 17,8 C 16,4 C 75 % 1023,0 hPa 0,0 l/m 0,67 h 0,00 h 300 W/m 13,0 km/h (3 Bft) 96,25 %
28.09.2021 14:00 17,8 C 18,5 C 16,2 C 73 % 1022,4 hPa 0,2 l/m 0,93 h 0,00 h 340 W/m 8,8 km/h (2 Bft) 97,21 %
28.09.2021 15:00 18,8 C 18,9 C 16,5 C 69 % 1021,8 hPa 0,0 l/m 1,00 h 0,00 h 388 W/m 11,4 km/h (2 Bft) 99,15 %
28.09.2021 16:00 18,6 C 19,7 C 15,9 C 71 % 1021,3 hPa 0,0 l/m 1,00 h 0,00 h 277 W/m 9,5 km/h (2 Bft) 97,22 %
28.09.2021 17:00 18,3 C 18,5 C 15,4 C 70 % 1020,9 hPa 0,0 l/m 0,33 h 0,00 h 145 W/m 7,0 km/h (2 Bft) 96,87 %
28.09.2021 18:00 17,0 C 15,9 C 14,3 C 75 % 1020,7 hPa 0,0 l/m 0,00 h 0,00 h 34 W/m 8,1 km/h (2 Bft) 99,79 %
28.09.2021 19:00 15,6 C 14,1 C 12,9 C 78 % 1020,4 hPa 0,0 l/m 0,00 h 0,00 h 8 W/m 2,6 km/h (1 Bft) 95,66 %
28.09.2021 20:00 14,3 C 13,3 C 12,3 C 85 % 1020,2 hPa 0,0 l/m 0,00 h 0,00 h 0 W/m 3,5 km/h (1 Bft) 98,50 %
28.09.2021 21:00 13,8 C 12,8 C 11,7 C 87 % 1019,9 hPa 0,0 l/m 0,00 h 0,00 h 0 W/m 2,9 km/h (1 Bft) 98,01 %
28.09.2021 22:00 13,3 C 12,4 C 11,7 C 87 % 1019,6 hPa 0,0 l/m 0,00 h 0,00 h 0 W/m 4,9 km/h (1 Bft) 96,90 %
28.09.2021 23:00 12,8 C 12,0 C 11,1 C 89 % 1019,0 hPa 0,0 l/m 0,00 h 0,00 h 0 W/m 4,6 km/h (1 Bft) 95,45 %
29.09.2021 00:00 12,2 C 11,4 C 10,7 C 90 % 1018,7 hPa 0,0 l/m 0,00 h 0,00 h 0 W/m 5,4 km/h (1 Bft) 97,09 %
29.09.2021 01:00 11,8 C 11,0 C 10,6 C 91 % 1018,3 hPa 0,0 l/m 0,00 h 0,00 h 0 W/m 6,7 km/h (2 Bft) 99,57 %
29.09.2021 02:00 11,4 C 10,6 C 10,4 C 92 % 1017,7 hPa 0,0 l/m 0,00 h 0,00 h 0 W/m 4,9 km/h (1 Bft) 95,09 %
29.09.2021 03:00 11,1 C 10,6 C 10,0 C 93 % 1017,0 hPa 0,0 l/m 0,00 h 0,00 h 0 W/m 8,1 km/h (2 Bft) 99,07 %
29.09.2021 04:00 11,1 C 10,5 C 10,3 C 93 % 1016,3 hPa 0,0 l/m 0,00 h 0,00 h 0 W/m 8,8 km/h (2 Bft) 97,85 %
29.09.2021 05:00 10,7 C 9,8 C 9,8 C 93 % 1015,7 hPa 0,0 l/m 0,00 h 0,00 h 0 W/m 7,3 km/h (2 Bft) 96,30 %
29.09.2021 06:00 10,2 C 9,4 C 9,5 C 93 % 1015,3 hPa 0,0 l/m 0,00 h 0,00 h 0 W/m 6,6 km/h (2 Bft) 98,79 %
29.09.2021 07:00 10,4 C 10,1 C 9,8 C 94 % 1015,0 hPa 0,0 l/m 0,00 h 0,13 h 7 W/m 8,0 km/h (2 Bft) 97,08 %
29.09.2021 08:00 10,9 C 10,1 C 9,6 C 94 % 1015,0 hPa 1,0 l/m 0,00 h 0,57 h 23 W/m 8,4 km/h (2 Bft) 97,50 %
29.09.2021 09:00 11,5 C 11,4 C 10,5 C 95 % 1014,8 hPa 0,2 l/m 0,00 h 0,20 h 62 W/m 7,9 km/h (2 Bft) 95,85 %
29.09.2021 10:00 12,4 C 12,0 C 11,3 C 95 % 1014,6 hPa 0,4 l/m 0,00 h 0,60 h 79 W/m 13,7 km/h (3 Bft) 98,64 %
29.09.2021 11:00 12,5 C 12,3 C 11,1 C 93 % 1015,3 hPa 0,2 l/m 0,00 h 0,47 h 97 W/m 17,3 km/h (3 Bft) 96,39 %
29.09.2021 12:00 12,4 C 12,2 C 11,2 C 93 % 1015,5 hPa 0,2 l/m 0,03 h 0,47 h 159 W/m 16,3 km/h (3 Bft) 97,63 %
29.09.2021 13:00 13,0 C 12,4 C 11,7 C 92 % 1016,0 hPa 0,8 l/m 0,00 h 0,43 h 140 W/m 14,8 km/h (3 Bft) 98,45 %
29.09.2021 14:00 12,4 C 11,8 C 10,7 C 90 % 1017,0 hPa 1,2 l/m 0,13 h 0,53 h 136 W/m 17,6 km/h (3 Bft) 96,59 %
29.09.2021 15:00 11,4 C 11,6 C 9,8 C 90 % 1017,6 hPa 0,0 l/m 0,80 h 0,17 h 387 W/m 13,7 km/h (3 Bft) 96,97 %
29.09.2021 16:00 13,3 C 13,7 C 10,4 C 84 % 1018,5 hPa 2,2 l/m 0,67 h 0,23 h 314 W/m 17,7 km/h (3 Bft) 98,93 %
29.09.2021 17:00 13,1 C 13,1 C 10,0 C 83 % 1019,0 hPa 0,0 l/m 0,77 h 0,00 h 198 W/m 16,2 km/h (3 Bft) 96,62 %
29.09.2021 18:00 13,0 C 12,2 C 9,3 C 79 % 1019,8 hPa 0,0 l/m 0,00 h 0,00 h 24 W/m 15,8 km/h (3 Bft) 98,68 %
29.09.2021 19:00 12,3 C 11,5 C 9,7 C 81 % 1020,8 hPa 0,0 l/m 0,00 h 0,13 h 5 W/m 16,3 km/h (3 Bft) 97,25 %
29.09.2021 20:00 11,3 C 10,7 C 9,1 C 83 % 1021,8 hPa 0,2 l/m 0,00 h 0,37 h 0 W/m 14,6 km/h (3 Bft) 94,97 %
29.09.2021 21:00 10,8 C 10,1 C 9,2 C 84 % 1022,7 hPa 0,0 l/m 0,00 h 0,00 h 0 W/m 11,2 km/h (2 Bft) 98,36 %
29.09.2021 22:00 10,3 C 9,5 C 8,6 C 88 % 1023,4 hPa 0,0 l/m 0,00 h 0,17 h 0 W/m 7,5 km/h (2 Bft) 97,80 %
29.09.2021 23:00 9,5 C 8,7 C 8,4 C 90 % 1023,6 hPa 0,0 l/m 0,00 h 0,00 h 0 W/m 9,1 km/h (2 Bft) 96,52 %
30.09.2021 00:00 9,2 C 8,4 C 8,3 C 91 % 1023,9 hPa 0,0 l/m 0,00 h 0,00 h 0 W/m 8,3 km/h (2 Bft) 98,86 %
30.09.2021 01:00 9,0 C 8,3 C 8,0 C 91 % 1024,3 hPa 0,0 l/m 0,00 h 0,00 h 0 W/m 10,0 km/h (2 Bft) 97,57 %
30.09.2021 02:00 8,9 C 8,2 C 8,0 C 91 % 1024,8 hPa 0,0 l/m 0,00 h 0,00 h 0 W/m 7,1 km/h (2 Bft) 97,29 %
30.09.2021 03:00 8,6 C 7,8 C 7,8 C 91 % 1025,0 hPa 0,0 l/m 0,00 h 0,00 h 0 W/m 7,1 km/h (2 Bft) 96,72 %
30.09.2021 04:00 8,5 C 7,8 C 7,7 C 91 % 1025,2 hPa 0,0 l/m 0,00 h 0,00 h 0 W/m 7,2 km/h (2 Bft) 98,86 %
30.09.2021 05:00 8,2 C 7,6 C 7,4 C 91 % 1025,6 hPa 0,0 l/m 0,00 h 0,00 h 0 W/m 12,2 km/h (3 Bft) 97,87 %
30.09.2021 06:00 8,0 C 7,2 C 7,3 C 90 % 1025,9 hPa 0,0 l/m 0,00 h 0,00 h 0 W/m 16,1 km/h (3 Bft) 96,18 %
30.09.2021 07:00 7,8 C 7,2 C 7,3 C 91 % 1026,2 hPa 0,0 l/m 0,00 h 0,00 h 8 W/m 12,0 km/h (2 Bft) 99,15 %
30.09.2021 08:00 8,2 C 7,8 C 7,7 C 91 % 1026,4 hPa 0,0 l/m 0,00 h 0,00 h 28 W/m 17,3 km/h (3 Bft) 95,96 %
30.09.2021 09:00 9,5 C 9,4 C 8,8 C 88 % 1026,6 hPa 0,0 l/m 0,10 h 0,00 h 90 W/m 14,7 km/h (3 Bft) 98,15 %
30.09.2021 10:00 11,2 C 11,5 C 10,4 C 82 % 1026,9 hPa 0,0 l/m 0,00 h 0,00 h 123 W/m 14,2 km/h (3 Bft) 97,20 %
30.09.2021 11:00 13,3 C 16,3 C 16,8 C 75 % 1027,0 hPa 0,2 l/m 0,67 h 0,00 h 416 W/m 16,5 km/h (3 Bft) 95,79 %
30.09.2021 12:00 14,3 C 15,3 C 13,8 C 69 % 1026,8 hPa 0,0 l/m 0,83 h 0,00 h 313 W/m 20,1 km/h (4 Bft) 97,79 %
30.09.2021 13:00 15,0 C 15,4 C 13,5 C 66 % 1026,4 hPa 0,0 l/m 0,57 h 0,00 h 296 W/m 18,1 km/h (3 Bft) 99,63 %
30.09.2021 14:00 15,2 C 15,5 C 13,3 C 66 % 1026,0 hPa 0,0 l/m 0,47 h 0,00 h 271 W/m 17,1 km/h (3 Bft) 95,58 %
30.09.2021 15:00 15,2 C 14,9 C 13,0 C 67 % 1025,4 hPa 0,0 l/m 0,00 h 0,00 h 160 W/m 17,7 km/h (3 Bft) 96,36 %
30.09.2021 16:00 14,9 C 14,7 C 12,5 C 68 % 1024,9 hPa 0,0 l/m 0,40 h 0,00 h 170 W/m 21,1 km/h (4 Bft) 96,87 %
30.09.2021 17:00 14,9 C 14,5 C 12,3 C 68 % 1024,3 hPa 0,0 l/m 0,27 h 0,00 h 122 W/m 20,1 km/h (4 Bft) 98,44 %
30.09.2021 18:00 14,4 C 13,7 C 11,5 C 69 % 1024,0 hPa 0,0 l/m 0,00 h 0,00 h 26 W/m 18,3 km/h (3 Bft) 96,59 %
30.09.2021 19:00 13,7 C 12,8 C 10,8 C 72 % 1023,7 hPa 0,0 l/m 0,00 h 0,00 h 6 W/m 8,7 km/h (2 Bft) 97,30 %
30.09.2021 20:00 13,2 C 12,5 C 10,6 C 75 % 1023,4 hPa 0,0 l/m 0,00 h 0,00 h 0 W/m 6,8 km/h (2 Bft) 97,47 %
30.09.2021 21:00 12,8 C 12,2 C 10,1 C 77 % 1023,1 hPa 0,0 l/m 0,00 h 0,00 h 0 W/m 7,0 km/h (2 Bft) 98,80 %
30.09.2021 22:00 12,4 C 11,5 C 9,7 C 78 % 1022,9 hPa 0,0 l/m 0,00 h 0,00 h 0 W/m 7,6 km/h (2 Bft) 96,01 %
30.09.2021 23:00 11,8 C 10,8 C 9,2 C 80 % 1022,6 hPa 0,0 l/m 0,00 h 0,00 h 0 W/m 8,2 km/h (2 Bft) 98,08 %
01.10.2021 00:00 11,1 C 10,3 C 8,9 C 81 % 1021,9 hPa 0,0 l/m 0,00 h 0,00 h 0 W/m 8,0 km/h (2 Bft) 98,68 %
01.10.2021 01:00 11,1 C 10,6 C 8,9 C 82 % 1021,6 hPa 0,0 l/m 0,00 h 0,00 h 0 W/m 9,2 km/h (2 Bft) 97,08 %
01.10.2021 02:00 10,9 C 9,9 C 8,6 C 82 % 1020,9 hPa 0,0 l/m 0,00 h 0,00 h 0 W/m 7,9 km/h (2 Bft) 95,89 %
01.10.2021 03:00 9,9 C 9,0 C 7,9 C 86 % 1020,4 hPa 0,0 l/m 0,00 h 0,00 h 0 W/m 8,1 km/h (2 Bft) 99,00 %
01.10.2021 04:00 9,3 C 8,4 C 7,4 C 87 % 1019,8 hPa 0,0 l/m 0,00 h 0,00 h 0 W/m 8,0 km/h (2 Bft) 96,15 %
01.10.2021 05:00 9,2 C 8,8 C 7,7 C 88 % 1019,3 hPa 0,0 l/m 0,00 h 0,00 h 0 W/m 9,6 km/h (2 Bft) 97,93 %
01.10.2021 06:00 10,0 C 9,4 C 8,4 C 85 % 1018,8 hPa 0,0 l/m 0,00 h 0,00 h 0 W/m 13,9 km/h (3 Bft) 98,93 %
01.10.2021 07:00 9,8 C 9,1 C 7,9 C 84 % 1018,5 hPa 0,0 l/m 0,00 h 0,00 h 12 W/m 15,4 km/h (3 Bft) 95,72 %
01.10.2021 08:00 10,0 C 9,7 C 8,3 C 84 % 1018,3 hPa 0,0 l/m 0,30 h 0,00 h 64 W/m 16,7 km/h (3 Bft) 98,79 %
01.10.2021 09:00 11,7 C 11,7 C 10,0 C 80 % 1018,3 hPa 0,0 l/m 0,47 h 0,00 h 146 W/m 17,9 km/h (3 Bft) 97,29 %
01.10.2021 10:00 13,3 C 13,4 C 11,3 C 77 % 1017,8 hPa 0,0 l/m 0,07 h 0,00 h 152 W/m 16,1 km/h (3 Bft) 96,84 %
01.10.2021 11:00 15,8 C 19,2 C 18,2 C 69 % 1017,5 hPa 0,0 l/m 0,77 h 0,00 h 434 W/m 19,4 km/h (3 Bft) 98,53 %
01.10.2021 12:00 17,6 C 18,4 C 16,2 C 64 % 1016,8 hPa 0,0 l/m 0,17 h 0,00 h 198 W/m 21,0 km/h (4 Bft) 99,03 %
01.10.2021 13:00 19,0 C 19,4 C 16,0 C 60 % 1016,2 hPa 0,0 l/m 0,40 h 0,00 h 338 W/m 25,1 km/h (4 Bft) 95,44 %
01.10.2021 14:00 19,7 C 22,3 C 16,1 C 57 % 1015,5 hPa 0,0 l/m 1,00 h 0,00 h 508 W/m 23,4 km/h (4 Bft) 99,64 %
01.10.2021 15:00 19,5 C 19,7 C 16,2 C 56 % 1015,1 hPa 0,0 l/m 1,00 h 0,00 h 346 W/m 25,9 km/h (4 Bft) 97,50 %
01.10.2021 16:00 19,0 C 19,0 C 15,7 C 58 % 1014,6 hPa 0,0 l/m 0,43 h 0,00 h 207 W/m 20,1 km/h (4 Bft) 97,50 %
01.10.2021 17:00 18,2 C 17,6 C 14,8 C 63 % 1014,2 hPa 0,0 l/m 0,00 h 0,03 h 71 W/m 13,1 km/h (3 Bft) 98,22 %
01.10.2021 18:00 16,6 C 15,4 C 12,0 C 72 % 1014,3 hPa 0,0 l/m 0,00 h 0,23 h 12 W/m 8,0 km/h (2 Bft) 97,11 %
01.10.2021 19:00 15,6 C 14,8 C 12,3 C 75 % 1014,2 hPa 0,0 l/m 0,00 h 0,00 h 0 W/m 7,5 km/h (2 Bft) 97,22 %
01.10.2021 20:00 15,3 C 14,3 C 11,6 C 78 % 1014,3 hPa 0,2 l/m 0,00 h 0,60 h 0 W/m 4,9 km/h (1 Bft) 98,22 %
01.10.2021 21:00 14,4 C 13,2 C 10,2 C 84 % 1014,4 hPa 0,4 l/m 0,00 h 0,83 h 0 W/m 3,2 km/h (1 Bft) 95,63 %
01.10.2021 22:00 13,8 C 12,8 C 10,2 C 87 % 1014,0 hPa 0,0 l/m 0,00 h 0,07 h 0 W/m 4,1 km/h (1 Bft) 98,25 %
01.10.2021 23:00 13,6 C 12,7 C 10,6 C 89 % 1014,1 hPa 0,8 l/m 0,00 h 0,17 h 0 W/m 14,5 km/h (3 Bft) 98,29 %
02.10.2021 00:00 13,0 C 12,1 C 10,5 C 94 % 1013,8 hPa 0,4 l/m 0,00 h 0,30 h 0 W/m 10,9 km/h (2 Bft) 96,30 %
02.10.2021 01:00 12,9 C 12,2 C 10,6 C 95 % 1013,5 hPa 0,0 l/m 0,00 h 0,00 h 0 W/m 14,2 km/h (3 Bft) 98,34 %
02.10.2021 02:00 13,1 C 12,4 C 10,9 C 95 % 1013,4 hPa 0,0 l/m 0,00 h 0,00 h 0 W/m 12,6 km/h (3 Bft) 98,08 %
02.10.2021 03:00 13,2 C 12,8 C 11,1 C 95 % 1013,1 hPa 0,2 l/m 0,00 h 0,30 h 0 W/m 15,1 km/h (3 Bft) 96,02 %
02.10.2021 04:00 13,1 C 12,2 C 11,1 C 95 % 1012,8 hPa 0,0 l/m 0,00 h 0,00 h 0 W/m 11,7 km/h (2 Bft) 98,93 %
02.10.2021 05:00 12,9 C 12,2 C 11,1 C 95 % 1012,6 hPa 0,0 l/m 0,00 h 0,00 h 0 W/m 7,8 km/h (2 Bft) 97,22 %
02.10.2021 06:00 12,8 C 12,2 C 11,1 C 95 % 1012,5 hPa 0,0 l/m 0,00 h 0,07 h 0 W/m 6,3 km/h (2 Bft) 95,36 %
02.10.2021 07:00 12,6 C 11,8 C 10,9 C 95 % 1012,4 hPa 0,0 l/m 0,00 h 0,07 h 6 W/m 5,3 km/h (1 Bft) 97,79 %
02.10.2021 08:00 12,3 C 11,7 C 10,9 C 95 % 1012,6 hPa 0,0 l/m 0,00 h 0,00 h 18 W/m 4,3 km/h (1 Bft) 98,15 %
02.10.2021 09:00 12,9 C 12,9 C 11,7 C 96 % 1012,5 hPa 0,0 l/m 0,00 h 0,00 h 92 W/m 6,5 km/h (2 Bft) 97,22 %
02.10.2021 10:00 14,0 C 14,6 C 12,9 C 94 % 1012,0 hPa 0,0 l/m 0,13 h 0,00 h 158 W/m 11,4 km/h (2 Bft) 96,61 %
02.10.2021 11:00 15,2 C 15,2 C 14,1 C 88 % 1011,2 hPa 0,0 l/m 0,13 h 0,00 h 168 W/m 10,4 km/h (2 Bft) 99,43 %
02.10.2021 12:00 15,8 C 15,8 C 14,5 C 87 % 1010,5 hPa 0,0 l/m 0,03 h 0,00 h 211 W/m 11,2 km/h (2 Bft) 97,32 %
02.10.2021 13:00 17,2 C 17,7 C 15,8 C 82 % 1009,4 hPa 0,0 l/m 0,53 h 0,00 h 305 W/m 15,0 km/h (3 Bft) 97,07 %
02.10.2021 14:00 17,8 C 17,4 C 15,6 C 77 % 1008,2 hPa 0,2 l/m 0,00 h 0,00 h 154 W/m 16,6 km/h (3 Bft) 97,66 %
02.10.2021 15:00 18,1 C 17,9 C 15,7 C 75 % 1007,3 hPa 0,0 l/m 0,10 h 0,00 h 188 W/m 15,5 km/h (3 Bft) 97,75 %
02.10.2021 16:00 18,0 C 17,5 C 15,4 C 70 % 1006,6 hPa 0,0 l/m 0,03 h 0,00 h 129 W/m 17,8 km/h (3 Bft) 98,15 %
02.10.2021 17:00 17,5 C 16,7 C 14,8 C 72 % 1005,4 hPa 0,0 l/m 0,00 h 0,00 h 73 W/m 13,2 km/h (3 Bft) 96,37 %
02.10.2021 18:00 16,8 C 15,9 C 14,0 C 79 % 1004,3 hPa 0,0 l/m 0,00 h 0,00 h 16 W/m 15,4 km/h (3 Bft) 99,71 %
02.10.2021 19:00 16,4 C 15,4 C 12,9 C 83 % 1003,4 hPa 0,4 l/m 0,00 h 0,73 h 0 W/m 17,3 km/h (3 Bft) 96,37 %
02.10.2021 20:00 15,5 C 14,4 C 12,3 C 90 % 1002,1 hPa 0,4 l/m 0,00 h 0,97 h 0 W/m 16,2 km/h (3 Bft) 97,67 %
02.10.2021 21:00 15,2 C 14,4 C 12,3 C 92 % 1000,8 hPa 0,6 l/m 0,00 h 0,90 h 0 W/m 15,6 km/h (3 Bft) 98,08 %
02.10.2021 22:00 15,4 C 14,7 C 12,8 C 92 % 999,6 hPa 0,2 l/m 0,00 h 0,67 h 0 W/m 17,5 km/h (3 Bft) 97,28 %
02.10.2021 23:00 16,5 C 15,9 C 13,3 C 88 % 998,9 hPa 0,0 l/m 0,00 h 0,50 h 0 W/m 17,5 km/h (3 Bft) 97,31 %
03.10.2021 00:00 17,8 C 17,0 C 13,9 C 83 % 998,4 hPa 0,0 l/m 0,00 h 0,43 h 0 W/m 32,3 km/h (5 Bft) 97,21 %
03.10.2021 01:00 18,0 C 16,9 C 13,9 C 84 % 998,2 hPa 0,2 l/m 0,00 h 0,83 h 0 W/m 32,8 km/h (5 Bft) 98,77 %
03.10.2021 02:00 17,9 C 16,9 C 14,3 C 86 % 998,2 hPa 0,2 l/m 0,00 h 0,83 h 0 W/m 27,6 km/h (4 Bft) 96,80 %
03.10.2021 03:00 17,9 C 17,0 C 15,1 C 87 % 998,1 hPa 0,0 l/m 0,00 h 0,53 h 0 W/m 22,6 km/h (4 Bft) 97,94 %
03.10.2021 04:00 18,0 C 17,1 C 15,4 C 85 % 997,6 hPa 0,0 l/m 0,00 h 0,23 h 0 W/m 21,3 km/h (4 Bft) 97,86 %
03.10.2021 05:00 17,4 C 16,6 C 14,4 C 85 % 997,2 hPa 0,2 l/m 0,00 h 0,37 h 0 W/m 20,8 km/h (4 Bft) 97,65 %
03.10.2021 06:00 17,4 C 16,8 C 14,7 C 83 % 997,0 hPa 0,0 l/m 0,00 h 0,27 h 0 W/m 20,0 km/h (4 Bft) 97,57 %
03.10.2021 07:00 18,0 C 17,1 C 14,7 C 80 % 996,6 hPa 0,2 l/m 0,00 h 0,70 h 0 W/m 19,2 km/h (3 Bft) 98,49 %
03.10.2021 08:00 17,3 C 16,1 C 13,4 C 86 % 996,7 hPa 0,8 l/m 0,00 h 1,00 h 10 W/m 16,6 km/h (3 Bft) 95,95 %
03.10.2021 09:00 16,8 C 15,7 C 13,6 C 91 % 997,0 hPa 2,0 l/m 0,00 h 0,87 h 18 W/m 19,2 km/h (3 Bft) 99,43 %
03.10.2021 10:00 17,1 C 16,2 C 14,1 C 90 % 997,1 hPa 0,4 l/m 0,00 h 1,00 h 41 W/m 20,1 km/h (4 Bft) 96,67 %
03.10.2021 11:00 17,3 C 16,3 C 14,6 C 91 % 997,2 hPa 0,4 l/m 0,00 h 0,97 h 74 W/m 22,0 km/h (4 Bft) 97,38 %
03.10.2021 12:00 17,9 C 16,8 C 15,0 C 90 % 997,4 hPa 0,4 l/m 0,00 h 0,80 h 60 W/m 17,2 km/h (3 Bft) 98,55 %
03.10.2021 13:00 18,9 C 18,2 C 15,5 C 86 % 997,9 hPa 0,0 l/m 0,00 h 0,00 h 70 W/m 27,7 km/h (4 Bft) 97,26 %
03.10.2021 14:00 19,6 C 19,0 C 16,3 C 82 % 998,4 hPa 0,0 l/m 0,00 h 0,13 h 106 W/m 27,2 km/h (4 Bft) 97,07 %
03.10.2021 15:00 19,6 C 18,9 C 16,5 C 82 % 999,2 hPa 0,0 l/m 0,00 h 0,53 h 115 W/m 31,4 km/h (5 Bft) 99,71 %
03.10.2021 16:00 19,0 C 17,8 C 16,0 C 83 % 1000,4 hPa 2,4 l/m 0,00 h 0,30 h 52 W/m 26,0 km/h (4 Bft) 95,35 %
03.10.2021 17:00 13,2 C 12,0 C 11,2 C 93 % 1003,9 hPa 0,4 l/m 0,00 h 0,33 h 27 W/m 19,7 km/h (3 Bft) 96,95 %
03.10.2021 18:00 11,6 C 11,0 C 10,4 C 93 % 1006,0 hPa 0,0 l/m 0,00 h 0,00 h 14 W/m 6,3 km/h (2 Bft) 98,46 %
03.10.2021 19:00 12,0 C 11,4 C 10,5 C 93 % 1008,0 hPa 0,0 l/m 0,00 h 0,00 h 5 W/m 9,3 km/h (2 Bft) 95,95 %
03.10.2021 20:00 12,1 C 11,7 C 10,6 C 92 % 1009,5 hPa 0,0 l/m 0,00 h 0,00 h 0 W/m 15,7 km/h (3 Bft) 98,46 %
03.10.2021 21:00 12,0 C 11,7 C 10,4 C 91 % 1010,9 hPa 0,0 l/m 0,00 h 0,00 h 0 W/m 18,9 km/h (3 Bft) 98,40 %
03.10.2021 22:00 11,9 C 11,3 C 10,0 C 89 % 1011,8 hPa 0,0 l/m 0,00 h 0,00 h 0 W/m 19,7 km/h (3 Bft) 96,49 %
03.10.2021 23:00 11,9 C 11,1 C 10,1 C 88 % 1012,3 hPa 0,0 l/m 0,00 h 0,00 h 0 W/m 15,0 km/h (3 Bft) 97,81 %
Min-Datum _ 30.09.21 30.09.21 30.09.21 01.10.21 03.10.21 - - - - 27.09.21 28.09.21
_ Min-Zeit 07:24 05:34 04:44 15:02 07:30 - - - - 00:12 23:32
Minimum _ 7,8 C 7,2 C 7,3 C 54 % 996,5 hPa - - - - 0,0 km/h (0 Bft) 40,62 %
Max-Datum _ 27.09.21 01.10.21 01.10.21 28.09.21 30.09.21 27.09.21 01.10.21 27.09.21 01.10.21 03.10.21 27.09.21
_ Max-Zeit 13:54 14:02 11:36 08:56 11:22 18:12 12:08 18:08 13:42 00:18 00:32
Maximum _ 21,6 C 25,0 C 21,1 C 97 % 1027,2 hPa 5,4 l/m 0,07 h 0,07 h 657 W/m 54,7 km/h
S (7 Bft)
100,00 %
Durchschnitt _ 14,1 C 13,6 C 12,2 C 85 % 1015,4 hPa #25,6 l/m #17:52 h #23:16 h 138 W/m 12,5 km/h (3 Bft) 97,50 %
© 2021 W. Hausmann